createdAt,value
2018-01-04T00:03:08.063Z,75.51
2018-01-04T00:08:10.143Z,75.85
2018-01-04T00:13:11.513Z,76.25
2018-01-04T00:18:12.899Z,76.62
2018-01-04T00:23:14.270Z,77.42
2018-01-04T00:28:15.668Z,77.13
2018-01-04T00:33:17.035Z,76.69
2018-01-04T00:38:19.135Z,76.58
2018-01-04T00:43:25.780Z,76.21
2018-01-04T00:48:29.023Z,75.89
2018-01-04T00:53:31.146Z,75.98
2018-01-04T00:58:32.516Z,76.17
2018-01-04T01:03:33.854Z,76.52
2018-01-04T01:08:35.190Z,76.52
2018-01-04T01:13:36.563Z,76.23
2018-01-04T01:18:38.670Z,76.34
2018-01-04T01:23:40.756Z,76.23
2018-01-04T01:28:42.223Z,75.86
2018-01-04T01:33:43.563Z,75.57
2018-01-04T01:38:45.690Z,75.45
2018-01-04T01:43:47.048Z,75.69
2018-01-04T01:48:48.382Z,75.89
2018-01-04T01:53:50.236Z,76.32
2018-01-04T01:58:54.627Z,76.38
2018-01-04T02:03:58.653Z,76.46
2018-01-04T02:09:01.267Z,76.05
2018-01-04T02:14:02.664Z,75.90
2018-01-04T02:19:24.321Z,75.74
2018-01-04T02:24:44.391Z,75.92
2018-01-04T02:30:04.368Z,76.28
2018-01-04T02:35:10.611Z,76.23
2018-01-04T02:40:30.459Z,76.76
2018-01-04T02:45:59.623Z,76.63
2018-01-04T02:51:01.790Z,76.93
2018-01-04T02:56:03.139Z,77.15
2018-01-04T03:01:04.509Z,77.12
2018-01-04T03:06:05.871Z,76.96
2018-01-04T03:11:11.775Z,77.09
2018-01-04T03:16:16.472Z,77.09
2018-01-04T03:21:18.822Z,77.11
2018-01-04T03:26:26.148Z,76.80
2018-01-04T03:31:33.691Z,76.94
2018-01-04T03:36:41.697Z,76.66
2018-01-04T03:41:50.133Z,76.31
2018-01-04T03:46:57.623Z,75.66
2018-01-04T03:52:05.709Z,75.37
2018-01-04T03:57:13.592Z,75.13
2018-01-04T04:02:22.139Z,74.91
2018-01-04T04:07:27.443Z,74.97
2018-01-04T04:12:28.809Z,75.05
2018-01-04T04:17:30.171Z,74.71
2018-01-04T04:22:31.509Z,74.51
2018-01-04T04:27:32.942Z,74.79
2018-01-04T04:32:34.316Z,75.16
2018-01-04T04:37:45.390Z,75.09
2018-01-04T04:42:48.250Z,74.73
2018-01-04T04:47:49.910Z,74.37
2018-01-04T04:52:51.296Z,74.23
2018-01-04T04:57:52.711Z,74.51
2018-01-04T05:02:54.051Z,74.46
2018-01-04T05:07:56.315Z,74.20
2018-01-04T05:12:57.712Z,74.07
2018-01-04T05:17:59.084Z,74.44
2018-01-04T05:23:00.440Z,73.82
2018-01-04T05:28:01.837Z,73.63
2018-01-04T05:33:03.260Z,73.81
2018-01-04T05:38:04.601Z,73.52
2018-01-04T05:43:05.924Z,73.48
2018-01-04T05:48:11.303Z,73.27
2018-01-04T05:53:17.079Z,72.76
2018-01-04T05:58:18.625Z,72.71
2018-01-04T06:03:20.190Z,72.84
2018-01-04T06:08:21.616Z,72.70
2018-01-04T06:13:22.979Z,72.23
2018-01-04T06:18:24.311Z,72.12
2018-01-04T06:23:25.616Z,71.69
2018-01-04T06:28:27.672Z,72.00
2018-01-04T06:33:29.048Z,72.21
2018-01-04T06:38:30.414Z,71.81
2018-01-04T06:43:31.762Z,71.94
2018-01-04T06:48:33.076Z,71.69
2018-01-04T06:53:34.424Z,71.34
2018-01-04T06:58:35.770Z,71.89
2018-01-04T07:03:40.704Z,71.80
2018-01-04T07:08:45.606Z,72.22
2018-01-04T07:13:47.668Z,72.20
2018-01-04T07:18:49.368Z,72.13
2018-01-04T07:23:50.738Z,72.67
2018-01-04T07:28:52.366Z,72.78
2018-01-04T07:33:53.998Z,73.02
2018-01-04T07:38:55.360Z,73.12
2018-01-04T07:43:56.712Z,73.19
2018-01-04T07:48:58.022Z,72.93
2018-01-04T07:53:59.368Z,72.85
2018-01-04T07:59:00.710Z,72.79
2018-01-04T08:04:02.099Z,72.98
2018-01-04T08:09:03.461Z,73.15
2018-01-04T08:14:04.819Z,73.10
2018-01-04T08:19:06.181Z,73.43
2018-01-04T08:24:07.615Z,74.07
2018-01-04T08:29:08.954Z,74.35
2018-01-04T08:34:13.071Z,73.93
2018-01-04T08:39:15.453Z,73.40
2018-01-04T08:44:17.584Z,73.29
2018-01-04T08:49:19.378Z,73.08
2018-01-04T08:54:20.757Z,73.03
2018-01-04T08:59:22.095Z,73.03
2018-01-04T09:04:23.430Z,72.94
2018-01-04T09:09:26.241Z,72.74
2018-01-04T09:14:28.295Z,72.27
2018-01-04T09:19:29.636Z,72.03
2018-01-04T09:24:31.753Z,72.11
2018-01-04T09:29:33.816Z,71.81
2018-01-04T09:34:35.139Z,71.79
2018-01-04T09:39:36.476Z,71.54
2018-01-04T09:44:37.808Z,72.09
2018-01-04T09:49:39.152Z,71.68
2018-01-04T09:54:43.522Z,71.22
2018-01-04T09:59:45.692Z,71.15
2018-01-04T10:04:48.270Z,71.07
2018-01-04T10:09:50.039Z,70.97
2018-01-04T10:14:51.479Z,71.01
2018-01-04T10:19:52.836Z,70.92
2018-01-04T10:24:54.182Z,71.07
2018-01-04T10:29:56.296Z,70.90
2018-01-04T10:34:57.630Z,70.74
2018-01-04T10:39:58.951Z,70.70
2018-01-04T10:45:00.256Z,70.33
2018-01-04T10:50:01.673Z,70.75
2018-01-04T10:55:03.119Z,71.21
2018-01-04T11:00:04.504Z,71.20
2018-01-04T11:05:05.909Z,71.94
2018-01-04T11:10:07.303Z,71.54
2018-01-04T11:15:09.558Z,71.30
2018-01-04T11:20:15.431Z,71.05
2018-01-04T11:25:18.575Z,70.76
2018-01-04T11:30:20.185Z,70.60
2018-01-04T11:35:21.536Z,70.79
2018-01-04T11:40:22.980Z,70.69
2018-01-04T11:45:24.316Z,69.59
2018-01-04T11:50:26.432Z,69.92
2018-01-04T11:55:27.784Z,69.26
2018-01-04T12:00:29.751Z,68.54
2018-01-04T12:05:31.424Z,68.33
2018-01-04T12:10:32.811Z,68.01
2018-01-04T12:15:35.871Z,67.51
2018-01-04T12:20:38.998Z,67.34
2018-01-04T12:25:43.813Z,67.37
2018-01-04T12:30:47.560Z,66.96
2018-01-04T12:35:50.818Z,66.63
2018-01-04T12:40:52.914Z,66.85
2018-01-04T12:45:54.510Z,66.73
2018-01-04T12:50:56.352Z,66.80
2018-01-04T12:55:57.680Z,65.94
2018-01-04T13:00:59.118Z,66.34
2018-01-04T13:06:00.459Z,66.50
2018-01-04T13:11:01.781Z,66.41
2018-01-04T13:16:03.892Z,66.62
2018-01-04T13:21:05.987Z,66.85
2018-01-04T13:26:07.297Z,66.90
2018-01-04T13:31:08.733Z,66.32
2018-01-04T13:36:11.053Z,66.50
2018-01-04T13:41:14.537Z,66.83
2018-01-04T13:46:17.147Z,66.68
2018-01-04T13:51:18.568Z,66.78
2018-01-04T13:56:19.924Z,66.36
2018-01-04T14:01:21.302Z,66.38
2018-01-04T14:06:22.623Z,66.39
2018-01-04T14:11:24.691Z,66.08
2018-01-04T14:16:26.032Z,65.87
2018-01-04T14:21:28.677Z,66.45
2018-01-04T14:26:30.140Z,66.51
2018-01-04T14:31:31.464Z,66.42
2018-01-04T14:36:32.813Z,66.55
2018-01-04T14:41:34.160Z,66.79
2018-01-04T14:46:35.668Z,67.07
2018-01-04T14:51:37.850Z,67.10
2018-01-04T14:56:41.852Z,67.02
2018-01-04T15:01:43.788Z,66.92
2018-01-04T15:06:46.446Z,67.17
2018-01-04T15:11:48.244Z,67.35
2018-01-04T15:16:49.619Z,67.31
2018-01-04T15:21:50.958Z,67.92
2018-01-04T15:26:52.387Z,68.14
2018-01-04T15:31:53.699Z,68.57
2018-01-04T15:36:55.048Z,69.43
2018-01-04T15:41:56.391Z,69.29
2018-01-04T15:46:57.711Z,69.97
2018-01-04T15:51:59.069Z,70.32
2018-01-04T15:57:00.397Z,70.71
2018-01-04T16:02:01.825Z,71.40
2018-01-04T16:07:03.233Z,72.27
2018-01-04T16:12:04.575Z,72.61
2018-01-04T16:17:05.948Z,73.10
2018-01-04T16:22:09.901Z,73.64
2018-01-04T16:27:14.032Z,73.78
2018-01-04T16:32:16.318Z,74.24
2018-01-04T16:37:18.762Z,74.46
2018-01-04T16:42:20.131Z,74.49
2018-01-04T16:47:21.529Z,74.84
2018-01-04T16:52:22.914Z,74.86
2018-01-04T16:57:24.253Z,75.01
2018-01-04T17:02:26.353Z,74.75
2018-01-04T17:07:27.675Z,74.92
2018-01-04T17:12:29.115Z,74.82
2018-01-04T17:17:30.488Z,74.69
2018-01-04T17:22:31.816Z,74.96
2018-01-04T17:27:33.180Z,75.01
2018-01-04T17:32:34.555Z,75.58
2018-01-04T17:37:35.866Z,75.92
2018-01-04T17:42:37.249Z,76.22
2018-01-04T17:47:39.653Z,76.41
2018-01-04T17:52:41.132Z,76.48
2018-01-04T17:57:42.482Z,76.55
2018-01-04T18:02:43.813Z,76.45
2018-01-04T18:07:45.120Z,76.75
2018-01-04T18:12:46.488Z,77.33
2018-01-04T18:17:47.854Z,77.50
2018-01-04T18:22:49.224Z,77.83
2018-01-04T18:27:51.300Z,77.59
2018-01-04T18:32:52.605Z,77.71
2018-01-04T18:37:53.964Z,78.24
2018-01-04T18:42:55.303Z,78.84
2018-01-04T18:47:57.363Z,79.06
2018-01-04T18:52:58.696Z,79.13
2018-01-04T18:58:00.808Z,79.64
2018-01-04T19:03:02.905Z,79.96
2018-01-04T19:08:04.315Z,79.38
2018-01-04T19:13:06.411Z,79.13
2018-01-04T19:18:08.473Z,79.55
2018-01-04T19:23:09.842Z,79.68
2018-01-04T19:28:11.185Z,80.10
2018-01-04T19:33:12.504Z,80.33
2018-01-04T19:38:13.831Z,80.17
2018-01-04T19:43:15.222Z,80.19
2018-01-04T19:48:16.734Z,79.95
2018-01-04T19:53:18.077Z,79.95
2018-01-04T19:58:19.409Z,79.58
2018-01-04T20:03:20.749Z,79.82
2018-01-04T20:08:22.048Z,79.83
2018-01-04T20:13:23.373Z,79.78
2018-01-04T20:18:24.741Z,80.13
2018-01-04T20:23:26.093Z,79.58
2018-01-04T20:28:28.165Z,79.02
2018-01-04T20:33:29.501Z,78.61
2018-01-04T20:38:30.906Z,77.91
2018-01-04T20:43:32.225Z,77.96
2018-01-04T20:48:33.613Z,77.39
2018-01-04T20:53:34.977Z,76.98
2018-01-04T20:58:36.443Z,76.63
2018-01-04T21:03:38.544Z,75.93
2018-01-04T21:08:40.044Z,75.45
2018-01-04T21:13:42.116Z,75.40
2018-01-04T21:18:43.472Z,75.25
2018-01-04T21:23:44.835Z,75.45
2018-01-04T21:28:46.171Z,75.63
2018-01-04T21:33:47.534Z,75.99
2018-01-04T21:38:48.892Z,75.17
2018-01-04T21:43:50.242Z,75.60
2018-01-04T21:48:51.576Z,75.69
2018-01-04T21:53:53.695Z,74.69
2018-01-04T21:58:55.051Z,74.44
2018-01-04T22:03:56.460Z,74.91
2018-01-04T22:08:57.776Z,74.80
2018-01-04T22:13:59.149Z,75.34
2018-01-04T22:19:01.287Z,75.16
2018-01-04T22:24:02.659Z,74.86
2018-01-04T22:29:04.793Z,74.18
2018-01-04T22:34:06.132Z,74.10
2018-01-04T22:39:07.458Z,73.57
2018-01-04T22:44:08.794Z,73.28
2018-01-04T22:49:10.141Z,73.66
2018-01-04T22:54:11.526Z,73.12
2018-01-04T22:59:12.967Z,72.64
2018-01-04T23:04:14.235Z,72.78
2018-01-04T23:09:15.535Z,71.89
2018-01-04T23:14:16.935Z,71.69
2018-01-04T23:19:18.297Z,72.89
2018-01-04T23:24:19.619Z,74.31
2018-01-04T23:29:20.944Z,74.70
2018-01-04T23:34:22.292Z,74.96
2018-01-04T23:39:23.779Z,76.03
2018-01-04T23:44:25.091Z,74.50
2018-01-04T23:49:26.423Z,73.13
2018-01-04T23:54:27.743Z,71.02
2018-01-04T23:59:29.059Z,70.54
